sensor_id;sensor_type;location;lat;lon;timestamp;temperature;humidity
6552;DHT22;3309;48.708;9.290;2022-07-30T00:01:58;16.20;99.90
6552;DHT22;3309;48.708;9.290;2022-07-30T00:04:23;16.20;99.90
6552;DHT22;3309;48.708;9.290;2022-07-30T00:06:49;16.20;99.90
6552;DHT22;3309;48.708;9.290;2022-07-30T00:09:15;16.20;99.90
6552;DHT22;3309;48.708;9.290;2022-07-30T00:11:40;16.10;99.90
6552;DHT22;3309;48.708;9.290;2022-07-30T00:14:06;16.10;99.90
6552;DHT22;3309;48.708;9.290;2022-07-30T00:16:31;16.10;99.90
6552;DHT22;3309;48.708;9.290;2022-07-30T00:18:57;16.10;99.90
6552;DHT22;3309;48.708;9.290;2022-07-30T00:21:23;16.00;99.90
6552;DHT22;3309;48.708;9.290;2022-07-30T00:23:48;16.00;99.90
6552;DHT22;3309;48.708;9.290;2022-07-30T00:26:14;16.00;99.90
6552;DHT22;3309;48.708;9.290;2022-07-30T00:28:39;15.90;99.90
6552;DHT22;3309;48.708;9.290;2022-07-30T00:31:05;15.80;99.90
6552;DHT22;3309;48.708;9.290;2022-07-30T00:33:30;15.80;99.90
6552;DHT22;3309;48.708;9.290;2022-07-30T00:35:56;15.80;99.90
6552;DHT22;3309;48.708;9.290;2022-07-30T00:38:21;15.80;99.90
6552;DHT22;3309;48.708;9.290;2022-07-30T00:40:48;15.80;99.90
6552;DHT22;3309;48.708;9.290;2022-07-30T00:43:15;15.80;99.90
6552;DHT22;3309;48.708;9.290;2022-07-30T00:45:41;15.80;99.90
6552;DHT22;3309;48.708;9.290;2022-07-30T00:48:07;15.80;99.90
6552;DHT22;3309;48.708;9.290;2022-07-30T00:50:33;15.80;99.90
6552;DHT22;3309;48.708;9.290;2022-07-30T00:52:58;15.90;99.90
6552;DHT22;3309;48.708;9.290;2022-07-30T00:55:24;16.00;99.90
6552;DHT22;3309;48.708;9.290;2022-07-30T00:57:50;16.00;99.90
6552;DHT22;3309;48.708;9.290;2022-07-30T01:00:16;16.00;99.90
6552;DHT22;3309;48.708;9.290;2022-07-30T01:02:42;16.00;99.90
6552;DHT22;3309;48.708;9.290;2022-07-30T01:05:08;15.90;99.90
6552;DHT22;3309;48.708;9.290;2022-07-30T01:07:34;15.90;99.90
6552;DHT22;3309;48.708;9.290;2022-07-30T01:10:00;15.90;99.90
6552;DHT22;3309;48.708;9.290;2022-07-30T01:12:26;16.00;99.90
6552;DHT22;3309;48.708;9.290;2022-07-30T01:14:54;16.00;99.90
6552;DHT22;3309;48.708;9.290;2022-07-30T01:17:20;15.80;99.90
6552;DHT22;3309;48.708;9.290;2022-07-30T01:19:46;15.90;99.90
6552;DHT22;3309;48.708;9.290;2022-07-30T01:27:49;15.90;99.90
6552;DHT22;3309;48.708;9.290;2022-07-30T01:30:21;15.90;99.90
6552;DHT22;3309;48.708;9.290;2022-07-30T01:32:48;16.00;99.90
6552;DHT22;3309;48.708;9.290;2022-07-30T01:35:17;15.90;99.90
6552;DHT22;3309;48.708;9.290;2022-07-30T01:37:44;16.00;99.90
6552;DHT22;3309;48.708;9.290;2022-07-30T01:40:11;15.80;99.90
6552;DHT22;3309;48.708;9.290;2022-07-30T01:42:39;15.70;99.90
6552;DHT22;3309;48.708;9.290;2022-07-30T01:45:06;15.50;99.90
6552;DHT22;3309;48.708;9.290;2022-07-30T01:47:34;15.50;99.90
6552;DHT22;3309;48.708;9.290;2022-07-30T01:50:03;15.50;99.90
6552;DHT22;3309;48.708;9.290;2022-07-30T01:52:32;15.50;99.90
6552;DHT22;3309;48.708;9.290;2022-07-30T01:54:59;15.50;99.90
6552;DHT22;3309;48.708;9.290;2022-07-30T01:57:26;15.50;99.90
6552;DHT22;3309;48.708;9.290;2022-07-30T01:59:58;15.50;99.90
6552;DHT22;3309;48.708;9.290;2022-07-30T02:02:26;15.50;99.90
6552;DHT22;3309;48.708;9.290;2022-07-30T02:04:51;15.50;99.90
6552;DHT22;3309;48.708;9.290;2022-07-30T02:07:30;15.50;99.90
6552;DHT22;3309;48.708;9.290;2022-07-30T02:10:05;15.50;99.90
6552;DHT22;3309;48.708;9.290;2022-07-30T02:12:33;15.60;99.90
6552;DHT22;3309;48.708;9.290;2022-07-30T02:17:41;15.70;99.90
6552;DHT22;3309;48.708;9.290;2022-07-30T02:20:09;15.70;99.90
6552;DHT22;3309;48.708;9.290;2022-07-30T02:22:38;15.70;99.90
6552;DHT22;3309;48.708;9.290;2022-07-30T02:25:06;15.70;99.90
6552;DHT22;3309;48.708;9.290;2022-07-30T02:27:34;15.60;99.90
6552;DHT22;3309;48.708;9.290;2022-07-30T02:30:02;15.60;99.90
6552;DHT22;3309;48.708;9.290;2022-07-30T02:32:32;15.50;99.90
6552;DHT22;3309;48.708;9.290;2022-07-30T02:35:03;15.40;99.90
6552;DHT22;3309;48.708;9.290;2022-07-30T02:37:31;15.40;99.90
6552;DHT22;3309;48.708;9.290;2022-07-30T02:39:57;15.30;99.90
6552;DHT22;3309;48.708;9.290;2022-07-30T02:42:24;15.30;99.90
6552;DHT22;3309;48.708;9.290;2022-07-30T02:44:51;15.30;99.90
6552;DHT22;3309;48.708;9.290;2022-07-30T02:47:18;15.10;99.90
6552;DHT22;3309;48.708;9.290;2022-07-30T02:49:46;15.00;99.90
6552;DHT22;3309;48.708;9.290;2022-07-30T02:52:14;15.00;99.90
6552;DHT22;3309;48.708;9.290;2022-07-30T02:54:42;15.10;99.90
6552;DHT22;3309;48.708;9.290;2022-07-30T02:57:09;15.10;99.90
6552;DHT22;3309;48.708;9.290;2022-07-30T02:59:40;15.10;99.90
6552;DHT22;3309;48.708;9.290;2022-07-30T03:02:06;15.10;99.90
6552;DHT22;3309;48.708;9.290;2022-07-30T03:04:35;15.10;99.90
6552;DHT22;3309;48.708;9.290;2022-07-30T03:07:00;15.10;99.90
6552;DHT22;3309;48.708;9.290;2022-07-30T03:09:27;15.10;99.90
6552;DHT22;3309;48.708;9.290;2022-07-30T03:11:54;15.00;99.90
6552;DHT22;3309;48.708;9.290;2022-07-30T03:14:20;15.00;99.90
6552;DHT22;3309;48.708;9.290;2022-07-30T03:16:50;14.90;99.90
6552;DHT22;3309;48.708;9.290;2022-07-30T03:19:19;14.80;99.90
6552;DHT22;3309;48.708;9.290;2022-07-30T03:21:47;14.80;99.90
6552;DHT22;3309;48.708;9.290;2022-07-30T03:24:16;14.70;99.90
6552;DHT22;3309;48.708;9.290;2022-07-30T03:26:43;14.60;99.90
6552;DHT22;3309;48.708;9.290;2022-07-30T03:29:11;14.60;99.90
6552;DHT22;3309;48.708;9.290;2022-07-30T03:31:38;14.60;99.90
6552;DHT22;3309;48.708;9.290;2022-07-30T03:34:06;14.50;99.90
6552;DHT22;3309;48.708;9.290;2022-07-30T03:36:34;14.40;99.90
6552;DHT22;3309;48.708;9.290;2022-07-30T03:39:02;14.40;99.90
6552;DHT22;3309;48.708;9.290;2022-07-30T03:41:28;14.40;99.90
6552;DHT22;3309;48.708;9.290;2022-07-30T03:43:55;14.40;99.90
6552;DHT22;3309;48.708;9.290;2022-07-30T03:46:21;14.40;99.90
6552;DHT22;3309;48.708;9.290;2022-07-30T03:48:46;14.40;99.90
6552;DHT22;3309;48.708;9.290;2022-07-30T03:51:12;14.50;99.90
6552;DHT22;3309;48.708;9.290;2022-07-30T03:53:39;14.40;99.90
6552;DHT22;3309;48.708;9.290;2022-07-30T03:56:06;14.30;99.90
6552;DHT22;3309;48.708;9.290;2022-07-30T03:58:32;14.30;99.90
6552;DHT22;3309;48.708;9.290;2022-07-30T04:00:58;14.20;99.90
6552;DHT22;3309;48.708;9.290;2022-07-30T04:03:25;14.20;99.90
6552;DHT22;3309;48.708;9.290;2022-07-30T04:05:51;14.10;99.90
6552;DHT22;3309;48.708;9.290;2022-07-30T04:08:17;14.10;99.90
6552;DHT22;3309;48.708;9.290;2022-07-30T04:10:42;14.00;99.90
6552;DHT22;3309;48.708;9.290;2022-07-30T04:13:08;14.00;99.90
6552;DHT22;3309;48.708;9.290;2022-07-30T04:15:44;14.00;99.90
6552;DHT22;3309;48.708;9.290;2022-07-30T04:18:11;14.30;99.90
6552;DHT22;3309;48.708;9.290;2022-07-30T04:20:40;14.10;99.90
6552;DHT22;3309;48.708;9.290;2022-07-30T04:23:08;14.10;99.90
6552;DHT22;3309;48.708;9.290;2022-07-30T04:25:35;14.10;99.90
6552;DHT22;3309;48.708;9.290;2022-07-30T04:28:02;14.20;99.90
6552;DHT22;3309;48.708;9.290;2022-07-30T04:30:28;14.60;99.90
6552;DHT22;3309;48.708;9.290;2022-07-30T04:32:54;14.40;99.90
6552;DHT22;3309;48.708;9.290;2022-07-30T04:35:30;14.50;99.90
6552;DHT22;3309;48.708;9.290;2022-07-30T04:37:56;14.60;99.90
6552;DHT22;3309;48.708;9.290;2022-07-30T04:40:21;14.80;99.90
6552;DHT22;3309;48.708;9.290;2022-07-30T04:42:47;15.10;99.90
6552;DHT22;3309;48.708;9.290;2022-07-30T04:45:12;15.40;99.90
6552;DHT22;3309;48.708;9.290;2022-07-30T04:47:38;15.90;99.90
6552;DHT22;3309;48.708;9.290;2022-07-30T04:50:05;16.40;99.90
6552;DHT22;3309;48.708;9.290;2022-07-30T04:52:31;16.90;99.90
6552;DHT22;3309;48.708;9.290;2022-07-30T04:55:02;17.20;30.50
6552;DHT22;3309;48.708;9.290;2022-07-30T04:57:29;17.70;5.30
6552;DHT22;3309;48.708;9.290;2022-07-30T04:59:56;17.70;1.00
6552;DHT22;3309;48.708;9.290;2022-07-30T05:02:24;17.60;1.00
6552;DHT22;3309;48.708;9.290;2022-07-30T05:04:51;17.80;1.00
6552;DHT22;3309;48.708;9.290;2022-07-30T05:07:18;18.10;1.00
6552;DHT22;3309;48.708;9.290;2022-07-30T05:09:46;18.10;1.00
6552;DHT22;3309;48.708;9.290;2022-07-30T05:12:12;18.30;1.00
6552;DHT22;3309;48.708;9.290;2022-07-30T05:14:37;18.60;1.00
6552;DHT22;3309;48.708;9.290;2022-07-30T05:17:03;18.80;1.00
6552;DHT22;3309;48.708;9.290;2022-07-30T05:19:28;18.60;1.00
6552;DHT22;3309;48.708;9.290;2022-07-30T05:21:54;18.80;1.00
6552;DHT22;3309;48.708;9.290;2022-07-30T05:24:19;18.70;1.00
6552;DHT22;3309;48.708;9.290;2022-07-30T05:26:46;18.80;1.00
6552;DHT22;3309;48.708;9.290;2022-07-30T05:29:12;18.20;1.00
6552;DHT22;3309;48.708;9.290;2022-07-30T05:31:38;17.60;1.00
6552;DHT22;3309;48.708;9.290;2022-07-30T05:34:04;17.40;99.60
6552;DHT22;3309;48.708;9.290;2022-07-30T05:36:30;17.40;99.90
6552;DHT22;3309;48.708;9.290;2022-07-30T05:38:55;17.50;99.90
6552;DHT22;3309;48.708;9.290;2022-07-30T05:41:21;17.60;99.90
6552;DHT22;3309;48.708;9.290;2022-07-30T05:43:46;17.70;99.90
6552;DHT22;3309;48.708;9.290;2022-07-30T05:46:12;17.90;99.90
6552;DHT22;3309;48.708;9.290;2022-07-30T05:48:37;17.80;66.70
6552;DHT22;3309;48.708;9.290;2022-07-30T05:51:04;17.90;74.90
6552;DHT22;3309;48.708;9.290;2022-07-30T05:53:30;17.90;99.90
6552;DHT22;3309;48.708;9.290;2022-07-30T05:55:56;17.80;99.90
6552;DHT22;3309;48.708;9.290;2022-07-30T05:58:22;18.00;99.90
6552;DHT22;3309;48.708;9.290;2022-07-30T06:00:47;18.00;44.50
6552;DHT22;3309;48.708;9.290;2022-07-30T06:03:13;17.80;99.90
6552;DHT22;3309;48.708;9.290;2022-07-30T06:05:38;17.90;45.70
6552;DHT22;3309;48.708;9.290;2022-07-30T06:08:04;17.90;45.70
6552;DHT22;3309;48.708;9.290;2022-07-30T06:10:30;17.90;1.00
6552;DHT22;3309;48.708;9.290;2022-07-30T06:12:57;18.10;29.00
6552;DHT22;3309;48.708;9.290;2022-07-30T06:15:22;18.60;73.90
6552;DHT22;3309;48.708;9.290;2022-07-30T06:17:48;18.50;1.00
6552;DHT22;3309;48.708;9.290;2022-07-30T06:20:15;18.50;1.00
6552;DHT22;3309;48.708;9.290;2022-07-30T06:22:41;18.50;1.00
6552;DHT22;3309;48.708;9.290;2022-07-30T06:25:07;18.70;1.00
6552;DHT22;3309;48.708;9.290;2022-07-30T06:27:33;18.80;1.00
6552;DHT22;3309;48.708;9.290;2022-07-30T06:30:01;18.90;1.00
6552;DHT22;3309;48.708;9.290;2022-07-30T06:32:26;19.10;1.00
6552;DHT22;3309;48.708;9.290;2022-07-30T06:34:52;19.10;1.00
6552;DHT22;3309;48.708;9.290;2022-07-30T06:37:17;19.20;1.00
6552;DHT22;3309;48.708;9.290;2022-07-30T06:39:43;19.30;1.00
6552;DHT22;3309;48.708;9.290;2022-07-30T06:42:08;19.40;1.00
6552;DHT22;3309;48.708;9.290;2022-07-30T06:44:34;19.70;1.00
6552;DHT22;3309;48.708;9.290;2022-07-30T06:46:59;19.60;99.90
6552;DHT22;3309;48.708;9.290;2022-07-30T06:49:25;19.60;99.90
6552;DHT22;3309;48.708;9.290;2022-07-30T06:51:50;19.70;1.00
6552;DHT22;3309;48.708;9.290;2022-07-30T06:54:16;19.80;1.00
6552;DHT22;3309;48.708;9.290;2022-07-30T06:56:42;20.10;94.60
6552;DHT22;3309;48.708;9.290;2022-07-30T06:59:07;20.30;1.00
6552;DHT22;3309;48.708;9.290;2022-07-30T07:01:33;20.50;99.90
6552;DHT22;3309;48.708;9.290;2022-07-30T07:03:58;20.70;99.90
6552;DHT22;3309;48.708;9.290;2022-07-30T07:06:24;20.50;99.90
6552;DHT22;3309;48.708;9.290;2022-07-30T07:08:49;20.50;1.00
6552;DHT22;3309;48.708;9.290;2022-07-30T07:11:15;20.60;1.00
6552;DHT22;3309;48.708;9.290;2022-07-30T07:13:41;20.80;1.00
6552;DHT22;3309;48.708;9.290;2022-07-30T07:16:06;20.90;1.00
6552;DHT22;3309;48.708;9.290;2022-07-30T07:18:32;21.10;1.00
6552;DHT22;3309;48.708;9.290;2022-07-30T07:20:57;21.30;91.40
6552;DHT22;3309;48.708;9.290;2022-07-30T07:23:23;21.40;1.00
6552;DHT22;3309;48.708;9.290;2022-07-30T07:25:48;21.60;1.00
6552;DHT22;3309;48.708;9.290;2022-07-30T07:28:14;21.60;99.90
6552;DHT22;3309;48.708;9.290;2022-07-30T07:30:42;21.80;1.00
6552;DHT22;3309;48.708;9.290;2022-07-30T07:33:09;22.10;1.00
6552;DHT22;3309;48.708;9.290;2022-07-30T07:35:35;22.40;1.00
6552;DHT22;3309;48.708;9.290;2022-07-30T07:38:00;22.80;99.90
6552;DHT22;3309;48.708;9.290;2022-07-30T07:40:26;22.70;99.90
6552;DHT22;3309;48.708;9.290;2022-07-30T07:42:52;23.20;99.90
6552;DHT22;3309;48.708;9.290;2022-07-30T07:45:17;23.60;39.20
6552;DHT22;3309;48.708;9.290;2022-07-30T07:47:44;23.70;1.00
6552;DHT22;3309;48.708;9.290;2022-07-30T07:50:11;24.20;1.00
6552;DHT22;3309;48.708;9.290;2022-07-30T07:52:39;24.70;1.00
6552;DHT22;3309;48.708;9.290;2022-07-30T07:55:05;25.20;1.00
6552;DHT22;3309;48.708;9.290;2022-07-30T07:57:40;25.40;1.00
6552;DHT22;3309;48.708;9.290;2022-07-30T08:00:08;25.70;1.00
6552;DHT22;3309;48.708;9.290;2022-07-30T08:02:34;26.10;1.00
6552;DHT22;3309;48.708;9.290;2022-07-30T08:05:00;26.30;1.00
6552;DHT22;3309;48.708;9.290;2022-07-30T08:07:25;26.10;1.00
6552;DHT22;3309;48.708;9.290;2022-07-30T08:09:51;26.50;1.00
6552;DHT22;3309;48.708;9.290;2022-07-30T08:12:16;26.60;1.00
6552;DHT22;3309;48.708;9.290;2022-07-30T08:14:42;27.20;1.00
6552;DHT22;3309;48.708;9.290;2022-07-30T08:17:07;27.30;1.00
6552;DHT22;3309;48.708;9.290;2022-07-30T08:19:33;27.30;1.00
6552;DHT22;3309;48.708;9.290;2022-07-30T08:21:59;27.20;1.00
6552;DHT22;3309;48.708;9.290;2022-07-30T08:24:24;27.40;1.00
6552;DHT22;3309;48.708;9.290;2022-07-30T08:26:50;27.80;1.00
6552;DHT22;3309;48.708;9.290;2022-07-30T08:29:16;27.80;1.00
6552;DHT22;3309;48.708;9.290;2022-07-30T08:31:41;27.70;1.00
6552;DHT22;3309;48.708;9.290;2022-07-30T08:34:07;27.90;1.00
6552;DHT22;3309;48.708;9.290;2022-07-30T08:36:33;28.50;1.00
6552;DHT22;3309;48.708;9.290;2022-07-30T08:38:58;27.90;1.00
6552;DHT22;3309;48.708;9.290;2022-07-30T08:41:24;27.60;1.00
6552;DHT22;3309;48.708;9.290;2022-07-30T08:43:50;28.30;1.00
6552;DHT22;3309;48.708;9.290;2022-07-30T08:46:17;28.10;1.00
6552;DHT22;3309;48.708;9.290;2022-07-30T08:48:43;27.90;1.00
6552;DHT22;3309;48.708;9.290;2022-07-30T08:51:09;27.90;1.00
6552;DHT22;3309;48.708;9.290;2022-07-30T08:53:35;28.30;1.00
6552;DHT22;3309;48.708;9.290;2022-07-30T08:56:02;29.00;1.00
6552;DHT22;3309;48.708;9.290;2022-07-30T08:58:30;28.80;1.00
6552;DHT22;3309;48.708;9.290;2022-07-30T09:00:56;29.30;1.00
6552;DHT22;3309;48.708;9.290;2022-07-30T09:03:22;29.10;1.00
6552;DHT22;3309;48.708;9.290;2022-07-30T09:05:47;29.00;1.00
6552;DHT22;3309;48.708;9.290;2022-07-30T09:08:13;29.30;1.00
6552;DHT22;3309;48.708;9.290;2022-07-30T09:10:39;29.20;1.00
6552;DHT22;3309;48.708;9.290;2022-07-30T09:13:28;29.40;1.00
6552;DHT22;3309;48.708;9.290;2022-07-30T09:15:55;28.90;1.00
6552;DHT22;3309;48.708;9.290;2022-07-30T09:18:31;28.70;1.00
6552;DHT22;3309;48.708;9.290;2022-07-30T09:20:59;27.80;1.00
6552;DHT22;3309;48.708;9.290;2022-07-30T09:23:24;27.70;1.00
6552;DHT22;3309;48.708;9.290;2022-07-30T09:25:50;28.30;1.00
6552;DHT22;3309;48.708;9.290;2022-07-30T09:28:27;28.30;1.00
6552;DHT22;3309;48.708;9.290;2022-07-30T09:30:54;27.80;1.00
6552;DHT22;3309;48.708;9.290;2022-07-30T09:33:38;27.10;1.00
6552;DHT22;3309;48.708;9.290;2022-07-30T09:36:05;28.10;1.00
6552;DHT22;3309;48.708;9.290;2022-07-30T09:38:51;29.30;1.00
6552;DHT22;3309;48.708;9.290;2022-07-30T09:41:19;29.00;1.00
6552;DHT22;3309;48.708;9.290;2022-07-30T09:43:50;28.10;1.00
6552;DHT22;3309;48.708;9.290;2022-07-30T09:46:16;28.10;1.00
6552;DHT22;3309;48.708;9.290;2022-07-30T09:48:43;27.40;1.00
6552;DHT22;3309;48.708;9.290;2022-07-30T09:51:10;26.40;1.00
6552;DHT22;3309;48.708;9.290;2022-07-30T09:53:36;27.30;1.00
6552;DHT22;3309;48.708;9.290;2022-07-30T09:56:25;27.10;1.00
6552;DHT22;3309;48.708;9.290;2022-07-30T09:58:51;26.90;1.00
6552;DHT22;3309;48.708;9.290;2022-07-30T10:01:17;28.00;1.00
6552;DHT22;3309;48.708;9.290;2022-07-30T10:03:42;29.00;1.00
6552;DHT22;3309;48.708;9.290;2022-07-30T10:06:08;29.70;1.00
6552;DHT22;3309;48.708;9.290;2022-07-30T10:08:45;30.10;1.00
6552;DHT22;3309;48.708;9.290;2022-07-30T10:11:14;30.50;1.00
6552;DHT22;3309;48.708;9.290;2022-07-30T10:13:41;29.30;1.00
6552;DHT22;3309;48.708;9.290;2022-07-30T10:16:07;28.00;1.00
6552;DHT22;3309;48.708;9.290;2022-07-30T10:18:34;28.20;1.00
6552;DHT22;3309;48.708;9.290;2022-07-30T10:21:00;28.00;1.00
6552;DHT22;3309;48.708;9.290;2022-07-30T10:23:27;27.50;1.00
6552;DHT22;3309;48.708;9.290;2022-07-30T10:25:57;26.90;1.00
6552;DHT22;3309;48.708;9.290;2022-07-30T10:28:23;27.70;1.00
6552;DHT22;3309;48.708;9.290;2022-07-30T10:30:50;28.30;1.00
6552;DHT22;3309;48.708;9.290;2022-07-30T10:33:17;28.00;1.00
6552;DHT22;3309;48.708;9.290;2022-07-30T10:35:42;28.00;1.00
6552;DHT22;3309;48.708;9.290;2022-07-30T10:38:10;27.30;1.00
6552;DHT22;3309;48.708;9.290;2022-07-30T10:41:28;27.10;1.00
6552;DHT22;3309;48.708;9.290;2022-07-30T10:44:10;27.30;1.00
6552;DHT22;3309;48.708;9.290;2022-07-30T10:46:59;28.70;1.00
6552;DHT22;3309;48.708;9.290;2022-07-30T10:49:27;27.80;1.00
6552;DHT22;3309;48.708;9.290;2022-07-30T10:51:53;28.40;1.00
6552;DHT22;3309;48.708;9.290;2022-07-30T10:54:42;29.40;1.00
6552;DHT22;3309;48.708;9.290;2022-07-30T10:57:14;29.30;1.00
6552;DHT22;3309;48.708;9.290;2022-07-30T11:02:23;29.20;1.00
6552;DHT22;3309;48.708;9.290;2022-07-30T11:04:49;29.20;1.00
6552;DHT22;3309;48.708;9.290;2022-07-30T11:09:48;30.40;1.00
6552;DHT22;3309;48.708;9.290;2022-07-30T11:12:14;29.60;1.00
6552;DHT22;3309;48.708;9.290;2022-07-30T11:17:16;29.00;1.00
6552;DHT22;3309;48.708;9.290;2022-07-30T11:22:34;27.20;1.00
6552;DHT22;3309;48.708;9.290;2022-07-30T11:25:04;27.00;1.00
6552;DHT22;3309;48.708;9.290;2022-07-30T11:27:39;27.20;1.00
6552;DHT22;3309;48.708;9.290;2022-07-30T11:30:30;27.50;1.00
6552;DHT22;3309;48.708;9.290;2022-07-30T11:35:41;28.90;1.00
6552;DHT22;3309;48.708;9.290;2022-07-30T11:38:11;28.40;1.00
6552;DHT22;3309;48.708;9.290;2022-07-30T11:43:23;27.00;1.00
6552;DHT22;3309;48.708;9.290;2022-07-30T11:46:16;27.40;1.00
6552;DHT22;3309;48.708;9.290;2022-07-30T11:49:03;27.60;1.00
6552;DHT22;3309;48.708;9.290;2022-07-30T11:51:44;27.90;1.00
6552;DHT22;3309;48.708;9.290;2022-07-30T11:54:10;28.60;1.00
6552;DHT22;3309;48.708;9.290;2022-07-30T11:56:36;28.80;1.00
6552;DHT22;3309;48.708;9.290;2022-07-30T11:59:11;28.60;1.00
6552;DHT22;3309;48.708;9.290;2022-07-30T12:01:37;28.50;1.00
6552;DHT22;3309;48.708;9.290;2022-07-30T12:04:04;29.00;1.00
6552;DHT22;3309;48.708;9.290;2022-07-30T12:06:30;29.00;1.00
6552;DHT22;3309;48.708;9.290;2022-07-30T12:08:57;29.20;1.00
6552;DHT22;3309;48.708;9.290;2022-07-30T12:11:23;29.50;1.00
6552;DHT22;3309;48.708;9.290;2022-07-30T12:13:57;29.90;1.00
6552;DHT22;3309;48.708;9.290;2022-07-30T12:16:24;30.10;1.00
6552;DHT22;3309;48.708;9.290;2022-07-30T12:18:50;30.60;1.00
6552;DHT22;3309;48.708;9.290;2022-07-30T12:21:16;30.60;1.00
6552;DHT22;3309;48.708;9.290;2022-07-30T12:23:56;30.50;1.00
6552;DHT22;3309;48.708;9.290;2022-07-30T12:26:26;29.30;1.00
6552;DHT22;3309;48.708;9.290;2022-07-30T12:28:54;29.80;1.00
6552;DHT22;3309;48.708;9.290;2022-07-30T12:31:20;30.50;1.00
6552;DHT22;3309;48.708;9.290;2022-07-30T12:33:46;30.40;1.00
6552;DHT22;3309;48.708;9.290;2022-07-30T12:36:29;30.30;1.00
6552;DHT22;3309;48.708;9.290;2022-07-30T12:38:55;30.60;1.00
6552;DHT22;3309;48.708;9.290;2022-07-30T12:41:23;30.50;1.00
6552;DHT22;3309;48.708;9.290;2022-07-30T12:44:04;30.30;1.00
6552;DHT22;3309;48.708;9.290;2022-07-30T12:46:39;30.10;1.00
6552;DHT22;3309;48.708;9.290;2022-07-30T12:49:07;29.90;1.00
6552;DHT22;3309;48.708;9.290;2022-07-30T12:51:35;30.50;1.00
6552;DHT22;3309;48.708;9.290;2022-07-30T12:54:13;30.80;1.00
6552;DHT22;3309;48.708;9.290;2022-07-30T12:56:39;30.60;1.00
6552;DHT22;3309;48.708;9.290;2022-07-30T12:59:19;30.60;1.00
6552;DHT22;3309;48.708;9.290;2022-07-30T13:01:45;30.30;1.00
6552;DHT22;3309;48.708;9.290;2022-07-30T13:04:12;29.20;1.00
6552;DHT22;3309;48.708;9.290;2022-07-30T13:06:38;28.70;1.00
6552;DHT22;3309;48.708;9.290;2022-07-30T13:09:05;28.20;1.00
6552;DHT22;3309;48.708;9.290;2022-07-30T13:11:42;28.20;1.00
6552;DHT22;3309;48.708;9.290;2022-07-30T13:14:08;28.20;1.00
6552;DHT22;3309;48.708;9.290;2022-07-30T13:16:37;28.80;1.00
6552;DHT22;3309;48.708;9.290;2022-07-30T13:19:07;29.60;1.00
6552;DHT22;3309;48.708;9.290;2022-07-30T13:21:33;30.10;1.00
6552;DHT22;3309;48.708;9.290;2022-07-30T13:24:00;30.50;1.00
6552;DHT22;3309;48.708;9.290;2022-07-30T13:26:26;30.50;1.00
6552;DHT22;3309;48.708;9.290;2022-07-30T13:28:56;30.40;1.00
6552;DHT22;3309;48.708;9.290;2022-07-30T13:31:22;30.20;1.00
6552;DHT22;3309;48.708;9.290;2022-07-30T13:33:47;29.80;1.00
6552;DHT22;3309;48.708;9.290;2022-07-30T13:36:14;29.80;1.00
6552;DHT22;3309;48.708;9.290;2022-07-30T13:38:40;29.80;1.00
6552;DHT22;3309;48.708;9.290;2022-07-30T13:41:06;30.20;1.00
6552;DHT22;3309;48.708;9.290;2022-07-30T13:43:32;30.60;1.00
6552;DHT22;3309;48.708;9.290;2022-07-30T13:45:57;30.30;1.00
6552;DHT22;3309;48.708;9.290;2022-07-30T13:48:23;30.30;1.00
6552;DHT22;3309;48.708;9.290;2022-07-30T13:50:49;30.30;1.00
6552;DHT22;3309;48.708;9.290;2022-07-30T13:53:14;30.50;1.00
6552;DHT22;3309;48.708;9.290;2022-07-30T13:55:40;30.60;1.00
6552;DHT22;3309;48.708;9.290;2022-07-30T13:58:08;29.40;1.00
6552;DHT22;3309;48.708;9.290;2022-07-30T14:00:35;28.90;1.00
6552;DHT22;3309;48.708;9.290;2022-07-30T14:03:03;28.30;1.00
6552;DHT22;3309;48.708;9.290;2022-07-30T14:05:29;28.00;1.00
6552;DHT22;3309;48.708;9.290;2022-07-30T14:07:55;28.00;1.00
6552;DHT22;3309;48.708;9.290;2022-07-30T14:10:21;27.90;1.00
6552;DHT22;3309;48.708;9.290;2022-07-30T14:12:49;27.80;1.00
6552;DHT22;3309;48.708;9.290;2022-07-30T14:15:15;27.60;1.00
6552;DHT22;3309;48.708;9.290;2022-07-30T14:17:41;27.50;1.00
6552;DHT22;3309;48.708;9.290;2022-07-30T14:20:06;27.90;1.00
6552;DHT22;3309;48.708;9.290;2022-07-30T14:22:32;28.20;1.00
6552;DHT22;3309;48.708;9.290;2022-07-30T14:24:58;27.90;1.00
6552;DHT22;3309;48.708;9.290;2022-07-30T14:27:24;28.30;1.00
6552;DHT22;3309;48.708;9.290;2022-07-30T14:29:50;29.20;1.00
6552;DHT22;3309;48.708;9.290;2022-07-30T14:32:16;29.20;1.00
6552;DHT22;3309;48.708;9.290;2022-07-30T14:34:42;28.60;1.00
6552;DHT22;3309;48.708;9.290;2022-07-30T14:37:08;27.90;1.00
6552;DHT22;3309;48.708;9.290;2022-07-30T14:39:33;27.60;1.00
6552;DHT22;3309;48.708;9.290;2022-07-30T14:41:59;27.40;1.00
6552;DHT22;3309;48.708;9.290;2022-07-30T14:44:24;27.00;1.00
6552;DHT22;3309;48.708;9.290;2022-07-30T14:46:50;26.80;1.00
6552;DHT22;3309;48.708;9.290;2022-07-30T14:49:15;27.00;1.00
6552;DHT22;3309;48.708;9.290;2022-07-30T14:51:41;27.60;1.00
6552;DHT22;3309;48.708;9.290;2022-07-30T14:54:07;28.20;1.00
6552;DHT22;3309;48.708;9.290;2022-07-30T14:56:36;28.00;1.00
6552;DHT22;3309;48.708;9.290;2022-07-30T14:59:02;27.50;1.00
6552;DHT22;3309;48.708;9.290;2022-07-30T15:01:28;27.80;1.00
6552;DHT22;3309;48.708;9.290;2022-07-30T15:03:53;28.50;1.00
6552;DHT22;3309;48.708;9.290;2022-07-30T15:06:19;28.80;1.00
6552;DHT22;3309;48.708;9.290;2022-07-30T15:08:44;28.60;1.00
6552;DHT22;3309;48.708;9.290;2022-07-30T15:11:10;28.20;1.00
6552;DHT22;3309;48.708;9.290;2022-07-30T15:13:36;28.10;1.00
6552;DHT22;3309;48.708;9.290;2022-07-30T15:16:02;28.60;1.00
6552;DHT22;3309;48.708;9.290;2022-07-30T15:18:28;28.90;1.00
6552;DHT22;3309;48.708;9.290;2022-07-30T15:20:53;29.20;1.00
6552;DHT22;3309;48.708;9.290;2022-07-30T15:23:19;29.10;1.00
6552;DHT22;3309;48.708;9.290;2022-07-30T15:25:44;29.00;1.00
6552;DHT22;3309;48.708;9.290;2022-07-30T15:28:11;29.00;1.00
6552;DHT22;3309;48.708;9.290;2022-07-30T15:30:37;28.90;1.00
6552;DHT22;3309;48.708;9.290;2022-07-30T15:33:03;28.60;1.00
6552;DHT22;3309;48.708;9.290;2022-07-30T15:35:28;28.40;1.00
6552;DHT22;3309;48.708;9.290;2022-07-30T15:37:54;28.40;1.00
6552;DHT22;3309;48.708;9.290;2022-07-30T15:40:19;28.20;1.00
6552;DHT22;3309;48.708;9.290;2022-07-30T15:42:45;28.20;1.00
6552;DHT22;3309;48.708;9.290;2022-07-30T15:45:10;28.20;1.00
6552;DHT22;3309;48.708;9.290;2022-07-30T15:47:36;28.40;1.00
6552;DHT22;3309;48.708;9.290;2022-07-30T15:50:03;28.20;1.00
6552;DHT22;3309;48.708;9.290;2022-07-30T15:52:29;28.10;1.00
6552;DHT22;3309;48.708;9.290;2022-07-30T15:54:54;27.90;1.00
6552;DHT22;3309;48.708;9.290;2022-07-30T15:57:20;27.80;1.00
6552;DHT22;3309;48.708;9.290;2022-07-30T15:59:45;27.80;1.00
6552;DHT22;3309;48.708;9.290;2022-07-30T16:02:11;27.90;1.00
6552;DHT22;3309;48.708;9.290;2022-07-30T16:04:36;28.00;1.00
6552;DHT22;3309;48.708;9.290;2022-07-30T16:07:02;27.90;1.00
6552;DHT22;3309;48.708;9.290;2022-07-30T16:09:29;27.70;1.00
6552;DHT22;3309;48.708;9.290;2022-07-30T16:11:55;27.30;1.00
6552;DHT22;3309;48.708;9.290;2022-07-30T16:14:21;27.00;1.00
6552;DHT22;3309;48.708;9.290;2022-07-30T16:16:46;27.00;1.00
6552;DHT22;3309;48.708;9.290;2022-07-30T16:19:12;27.00;1.00
6552;DHT22;3309;48.708;9.290;2022-07-30T16:21:37;27.10;1.00
6552;DHT22;3309;48.708;9.290;2022-07-30T16:24:03;27.20;1.00
6552;DHT22;3309;48.708;9.290;2022-07-30T16:26:29;27.20;1.00
6552;DHT22;3309;48.708;9.290;2022-07-30T16:28:55;27.00;1.00
6552;DHT22;3309;48.708;9.290;2022-07-30T16:31:21;26.80;1.00
6552;DHT22;3309;48.708;9.290;2022-07-30T16:33:46;26.90;1.00
6552;DHT22;3309;48.708;9.290;2022-07-30T16:36:12;26.90;1.00
6552;DHT22;3309;48.708;9.290;2022-07-30T16:38:39;26.80;1.00